createdAt,value
2019-04-27T00:01:17.847Z,5.38
2019-04-27T00:04:07.779Z,5.32
2019-04-27T00:06:43.057Z,5.29
2019-04-27T00:09:24.270Z,5.32
2019-04-27T00:12:08.686Z,5.32
2019-04-27T00:14:41.509Z,5.23
2019-04-27T00:17:45.469Z,5.09
2019-04-27T00:20:26.927Z,5.02
2019-04-27T00:23:03.858Z,4.94
2019-04-27T00:25:36.688Z,4.99
2019-04-27T00:28:09.398Z,5.00
2019-04-27T00:30:43.847Z,4.99
2019-04-27T00:33:16.746Z,4.99
2019-04-27T00:36:03.872Z,4.93
2019-04-27T00:38:47.684Z,4.88
2019-04-27T00:41:20.403Z,4.76
2019-04-27T00:43:53.290Z,4.70
2019-04-27T00:46:26.070Z,4.63
2019-04-27T00:48:59.889Z,4.68
2019-04-27T00:51:33.270Z,4.75
2019-04-27T00:54:05.801Z,4.78
2019-04-27T00:56:57.717Z,4.72
2019-04-27T00:59:55.068Z,4.67
2019-04-27T01:02:53.635Z,4.58
2019-04-27T01:05:27.909Z,4.67
2019-04-27T01:08:00.781Z,4.58
2019-04-27T01:10:33.754Z,4.56
2019-04-27T01:13:06.713Z,4.57
2019-04-27T01:15:39.629Z,4.57
2019-04-27T01:18:15.363Z,4.62
2019-04-27T01:20:48.832Z,4.67
2019-04-27T01:23:21.646Z,4.65
2019-04-27T01:26:16.083Z,4.65
2019-04-27T01:28:54.390Z,4.56
2019-04-27T01:31:27.275Z,4.53
2019-04-27T01:34:00.143Z,4.43
2019-04-27T01:36:33.013Z,4.40
2019-04-27T01:39:08.686Z,4.41
2019-04-27T01:41:41.526Z,4.50
2019-04-27T01:44:14.357Z,4.58
2019-04-27T01:46:48.675Z,4.58
2019-04-27T01:49:21.553Z,4.61
2019-04-27T01:51:54.262Z,4.72
2019-04-27T01:54:29.092Z,4.75
2019-04-27T01:57:04.223Z,4.56
2019-04-27T01:59:36.372Z,4.63
2019-04-27T02:02:40.322Z,4.60
2019-04-27T02:05:30.277Z,4.51
2019-04-27T02:08:03.122Z,4.52
2019-04-27T02:10:36.038Z,4.60
2019-04-27T02:13:09.078Z,4.64
2019-04-27T02:15:42.006Z,4.63
2019-04-27T02:18:15.035Z,4.65
2019-04-27T02:20:49.192Z,4.68
2019-04-27T02:23:22.270Z,4.40
2019-04-27T02:25:55.184Z,4.18
2019-04-27T02:28:51.056Z,4.16
2019-04-27T02:31:43.855Z,4.21
2019-04-27T02:34:19.896Z,4.30
2019-04-27T02:36:52.874Z,4.41
2019-04-27T02:39:25.667Z,4.45
2019-04-27T02:42:00.307Z,4.34
2019-04-27T02:44:40.210Z,4.31
2019-04-27T02:47:12.202Z,4.29
2019-04-27T02:49:45.001Z,4.18
2019-04-27T02:52:45.446Z,4.12
2019-04-27T02:55:19.758Z,4.11
2019-04-27T02:57:52.845Z,4.04
2019-04-27T03:00:25.730Z,3.97
2019-04-27T03:03:02.606Z,4.03
2019-04-27T03:05:35.453Z,4.00
2019-04-27T03:08:10.191Z,3.91
2019-04-27T03:10:42.810Z,3.86
2019-04-27T03:13:40.553Z,3.79
2019-04-27T03:16:32.261Z,3.87
2019-04-27T03:19:22.191Z,3.83
2019-04-27T03:22:19.660Z,3.77
2019-04-27T03:25:20.221Z,3.88
2019-04-27T03:27:54.901Z,3.91
2019-04-27T03:30:31.922Z,3.97
2019-04-27T03:33:03.327Z,3.94
2019-04-27T03:35:37.319Z,4.04
2019-04-27T03:38:12.523Z,4.12
2019-04-27T03:40:45.550Z,4.17
2019-04-27T03:43:24.025Z,4.27
2019-04-27T03:45:56.908Z,4.37
2019-04-27T03:48:29.843Z,4.55
2019-04-27T03:51:20.553Z,4.54
2019-04-27T03:54:07.064Z,4.44
2019-04-27T03:56:52.088Z,4.49
2019-04-27T03:59:33.710Z,4.59
2019-04-27T04:02:06.577Z,4.64
2019-04-27T04:04:42.310Z,4.65
2019-04-27T04:07:16.634Z,4.73
2019-04-27T04:09:50.271Z,4.97
2019-04-27T04:12:40.074Z,5.14
2019-04-27T04:15:20.056Z,5.14
2019-04-27T04:17:52.974Z,5.27
2019-04-27T04:20:25.854Z,5.28
2019-04-27T04:23:02.791Z,5.24
2019-04-27T04:25:33.369Z,5.26
2019-04-27T04:28:06.235Z,5.30
2019-04-27T04:30:40.283Z,5.38
2019-04-27T04:33:13.349Z,5.50
2019-04-27T04:35:46.240Z,5.63
2019-04-27T04:38:20.593Z,5.63
2019-04-27T04:40:59.990Z,5.65
2019-04-27T04:43:54.724Z,5.70
2019-04-27T04:47:00.358Z,5.68
2019-04-27T04:49:32.816Z,5.76
2019-04-27T04:52:05.605Z,5.76
2019-04-27T04:54:40.908Z,5.77
2019-04-27T04:57:13.738Z,5.80
2019-04-27T04:59:46.564Z,5.83
2019-04-27T05:02:19.347Z,5.79
2019-04-27T05:04:52.067Z,5.67
2019-04-27T05:07:24.831Z,5.73
2019-04-27T05:09:58.728Z,5.76
2019-04-27T05:12:31.655Z,5.78
2019-04-27T05:15:04.620Z,5.88
2019-04-27T05:17:37.383Z,5.93
2019-04-27T05:20:44.390Z,5.97
2019-04-27T05:23:18.638Z,6.05
2019-04-27T05:25:51.709Z,6.15
2019-04-27T05:28:29.897Z,6.17
2019-04-27T05:31:02.837Z,6.18
2019-04-27T05:33:35.643Z,6.09
2019-04-27T05:36:09.184Z,6.15
2019-04-27T05:38:46.030Z,6.14
2019-04-27T05:41:16.627Z,6.26
2019-04-27T05:44:07.636Z,6.36
2019-04-27T05:46:51.149Z,6.44
2019-04-27T05:49:44.661Z,6.52
2019-04-27T05:52:30.175Z,6.55
2019-04-27T05:55:03.031Z,6.56
2019-04-27T05:57:35.784Z,6.50
2019-04-27T06:00:10.738Z,6.46
2019-04-27T06:02:43.558Z,6.56
2019-04-27T06:05:16.303Z,6.57
2019-04-27T06:07:49.132Z,6.62
2019-04-27T06:10:21.181Z,6.66
2019-04-27T06:12:53.921Z,6.63
2019-04-27T06:15:28.379Z,6.75
2019-04-27T06:18:01.199Z,6.60
2019-04-27T06:20:34.002Z,6.63
2019-04-27T06:23:06.786Z,6.70
2019-04-27T06:25:41.923Z,6.76
2019-04-27T06:28:14.744Z,6.83
2019-04-27T06:30:47.016Z,6.92
2019-04-27T06:33:30.029Z,6.99
2019-04-27T06:35:55.613Z,6.93
2019-04-27T06:38:29.310Z,7.21
2019-04-27T06:41:02.126Z,7.32
2019-04-27T06:43:34.795Z,7.39
2019-04-27T06:46:08.800Z,7.30
2019-04-27T06:49:00.627Z,7.54
2019-04-27T06:51:33.419Z,7.49
2019-04-27T06:54:06.154Z,7.57
2019-04-27T06:56:39.089Z,7.52
2019-04-27T06:59:11.861Z,7.58
2019-04-27T07:01:44.662Z,7.66
2019-04-27T07:04:19.424Z,7.80
2019-04-27T07:06:55.905Z,7.94
2019-04-27T07:09:26.805Z,8.05
2019-04-27T07:11:59.591Z,8.08
2019-04-27T07:14:32.408Z,8.42
2019-04-27T07:17:08.962Z,8.58
2019-04-27T07:19:41.865Z,8.65
2019-04-27T07:22:14.608Z,8.68
2019-04-27T07:24:51.512Z,9.08
2019-04-27T07:27:24.335Z,9.05
2019-04-27T07:29:59.565Z,8.85
2019-04-27T07:32:31.655Z,9.00
2019-04-27T07:35:04.520Z,8.95
2019-04-27T07:37:39.188Z,9.19
2019-04-27T07:40:12.102Z,9.47
2019-04-27T07:42:46.549Z,9.60
2019-04-27T07:45:29.717Z,9.65
2019-04-27T07:48:02.517Z,9.38
2019-04-27T07:50:35.448Z,9.18
2019-04-27T07:53:08.702Z,8.95
2019-04-27T07:55:41.733Z,8.83
2019-04-27T07:58:14.600Z,8.87
2019-04-27T08:00:47.358Z,8.89
2019-04-27T08:03:20.182Z,8.81
2019-04-27T08:05:53.050Z,9.07
2019-04-27T08:08:25.868Z,9.21
2019-04-27T08:14:22.329Z,9.58
2019-04-27T08:16:55.310Z,10.11
2019-04-27T08:19:29.497Z,10.24
2019-04-27T08:22:02.160Z,10.20
2019-04-27T08:24:35.342Z,10.44
2019-04-27T08:27:19.617Z,10.50
2019-04-27T08:30:23.680Z,10.78
2019-04-27T08:32:57.194Z,10.89
2019-04-27T08:35:32.714Z,11.34
2019-04-27T08:38:08.941Z,11.59
2019-04-27T08:40:42.109Z,11.14
2019-04-27T08:43:15.055Z,11.06
2019-04-27T08:45:48.925Z,10.97
2019-04-27T08:48:33.868Z,10.92
2019-04-27T08:50:59.217Z,10.96
2019-04-27T08:53:32.000Z,11.21
2019-04-27T08:56:06.040Z,11.00
2019-04-27T08:58:38.879Z,10.78
2019-04-27T09:01:12.121Z,10.88
2019-04-27T09:03:44.974Z,11.11
2019-04-27T09:06:21.377Z,11.21
2019-04-27T09:09:02.684Z,12.56
2019-04-27T09:11:44.176Z,12.49
2019-04-27T09:14:34.882Z,12.90
2019-04-27T09:17:26.152Z,13.11
2019-04-27T09:20:13.379Z,12.74
2019-04-27T09:22:50.064Z,13.29
2019-04-27T09:25:23.051Z,13.37
2019-04-27T09:28:01.797Z,13.07
2019-04-27T09:30:34.243Z,12.85
2019-04-27T09:33:07.240Z,12.09
2019-04-27T09:35:44.468Z,11.78
2019-04-27T09:38:18.494Z,11.30
2019-04-27T09:40:53.658Z,11.21
2019-04-27T09:43:26.524Z,10.83
2019-04-27T09:45:59.615Z,10.71
2019-04-27T09:48:39.760Z,10.77
2019-04-27T09:51:11.877Z,10.82
2019-04-27T09:53:49.647Z,10.67
2019-04-27T09:56:28.707Z,10.11
2019-04-27T09:59:07.834Z,10.08
2019-04-27T10:01:46.598Z,10.05
2019-04-27T10:04:26.332Z,10.24
2019-04-27T10:07:01.403Z,10.62
2019-04-27T10:09:49.064Z,10.71
2019-04-27T10:12:43.248Z,10.65
2019-04-27T10:15:32.565Z,11.23
2019-04-27T10:18:29.566Z,11.81
2019-04-27T10:21:02.384Z,11.97
2019-04-27T10:23:57.275Z,12.14
2019-04-27T10:26:49.463Z,12.63
2019-04-27T10:29:22.010Z,12.87
2019-04-27T10:32:03.045Z,12.70
2019-04-27T10:35:08.010Z,12.48
2019-04-27T10:37:42.852Z,12.42
2019-04-27T10:40:34.312Z,11.97
2019-04-27T10:43:08.648Z,11.97
2019-04-27T10:45:43.051Z,12.01
2019-04-27T10:48:21.948Z,12.46
2019-04-27T10:50:59.156Z,12.84
2019-04-27T10:53:50.575Z,13.08
2019-04-27T10:56:30.386Z,12.81
2019-04-27T10:59:06.530Z,12.80
2019-04-27T11:01:46.347Z,13.11
2019-04-27T11:05:17.558Z,12.91
2019-04-27T11:08:16.720Z,12.73
2019-04-27T11:11:14.821Z,12.48
2019-04-27T11:14:40.053Z,11.85
2019-04-27T11:17:24.383Z,11.64
2019-04-27T11:20:14.451Z,10.96
2019-04-27T11:23:09.326Z,10.67
2019-04-27T11:25:52.175Z,10.65
2019-04-27T11:28:52.093Z,10.78
2019-04-27T11:31:26.113Z,10.90
2019-04-27T11:34:06.731Z,11.46
2019-04-27T11:36:59.263Z,11.90
2019-04-27T11:39:46.068Z,11.70
2019-04-27T11:42:33.391Z,11.50
2019-04-27T11:45:21.208Z,12.01
2019-04-27T11:48:05.806Z,12.80
2019-04-27T11:51:33.161Z,13.84
2019-04-27T11:54:27.595Z,14.64
2019-04-27T11:57:01.007Z,13.78
2019-04-27T11:59:50.373Z,13.56
2019-04-27T12:02:40.195Z,13.61
2019-04-27T12:05:36.275Z,12.81
2019-04-27T12:11:31.570Z,12.59
2019-04-27T12:14:13.394Z,13.17
2019-04-27T12:17:08.822Z,13.05
2019-04-27T12:20:09.516Z,12.22
2019-04-27T12:23:39.448Z,12.06
2019-04-27T12:26:47.993Z,11.88
2019-04-27T12:30:07.774Z,11.60
2019-04-27T12:33:40.785Z,11.50
2019-04-27T12:36:25.871Z,11.03
2019-04-27T12:39:00.549Z,10.87
2019-04-27T12:41:35.417Z,10.50
2019-04-27T12:44:08.496Z,10.55
2019-04-27T12:46:41.337Z,10.86
2019-04-27T12:49:17.363Z,10.76
2019-04-27T12:51:50.159Z,10.73
2019-04-27T12:54:38.646Z,10.27
2019-04-27T12:57:34.255Z,10.29
2019-04-27T13:00:16.593Z,10.27
2019-04-27T13:02:48.834Z,10.40
2019-04-27T13:05:21.727Z,10.66
2019-04-27T13:07:55.693Z,10.74
2019-04-27T13:10:28.676Z,10.92
2019-04-27T13:13:01.595Z,11.47
2019-04-27T13:15:35.661Z,11.65
2019-04-27T13:18:12.186Z,11.98
2019-04-27T13:20:44.760Z,11.49
2019-04-27T13:23:17.627Z,11.17
2019-04-27T13:25:52.753Z,11.44
2019-04-27T13:28:27.744Z,11.32
2019-04-27T13:31:06.710Z,11.24
2019-04-27T13:33:41.424Z,10.95
2019-04-27T13:36:16.683Z,11.50
2019-04-27T13:38:49.236Z,11.81
2019-04-27T13:41:30.757Z,12.00
2019-04-27T13:43:57.525Z,12.05
2019-04-27T13:46:49.394Z,11.52
2019-04-27T13:49:40.996Z,11.17
2019-04-27T13:52:19.786Z,10.81
2019-04-27T13:54:52.671Z,10.23
2019-04-27T13:57:26.548Z,9.87
2019-04-27T14:00:01.081Z,9.18
2019-04-27T14:02:35.061Z,8.33
2019-04-27T14:05:11.655Z,8.12
2019-04-27T14:07:43.556Z,8.18
2019-04-27T14:10:17.965Z,8.34
2019-04-27T14:12:50.986Z,8.49
2019-04-27T14:15:23.869Z,8.39
2019-04-27T14:17:56.763Z,8.53
2019-04-27T14:20:29.724Z,9.11
2019-04-27T14:23:13.872Z,9.31
2019-04-27T14:25:47.055Z,9.46
2019-04-27T14:28:19.587Z,9.47
2019-04-27T14:30:52.548Z,9.51
2019-04-27T14:33:26.048Z,9.43
2019-04-27T14:35:59.485Z,9.23
2019-04-27T14:38:32.396Z,9.59
2019-04-27T14:41:04.494Z,9.76
2019-04-27T14:43:37.278Z,9.91
2019-04-27T14:46:10.510Z,9.69
2019-04-27T14:48:43.569Z,9.59
2019-04-27T14:51:16.442Z,9.46
2019-04-27T14:53:49.299Z,9.12
2019-04-27T14:56:24.769Z,8.87
2019-04-27T14:58:56.659Z,8.40
2019-04-27T15:01:29.466Z,8.29
2019-04-27T15:04:02.232Z,7.74
2019-04-27T15:06:35.199Z,7.73
2019-04-27T15:09:09.356Z,7.83
2019-04-27T15:11:42.226Z,7.67
2019-04-27T15:14:16.250Z,7.77
2019-04-27T15:16:52.656Z,7.83
2019-04-27T15:19:31.372Z,7.56
2019-04-27T15:22:05.134Z,7.58
2019-04-27T15:24:37.957Z,7.56
2019-04-27T15:27:12.434Z,7.59
2019-04-27T15:29:45.259Z,7.70
2019-04-27T15:32:26.507Z,8.00
2019-04-27T15:35:21.646Z,8.17
2019-04-27T15:37:59.534Z,7.93
2019-04-27T15:40:54.297Z,7.67
2019-04-27T15:43:30.896Z,7.89
2019-04-27T15:46:02.794Z,9.79
2019-04-27T15:48:35.625Z,10.86
2019-04-27T15:51:16.229Z,11.83
2019-04-27T15:53:45.855Z,12.55
2019-04-27T15:56:18.245Z,12.06
2019-04-27T15:58:51.132Z,12.62
2019-04-27T16:01:23.977Z,13.46
2019-04-27T16:03:58.331Z,13.17
2019-04-27T16:06:31.292Z,12.51
2019-04-27T16:09:10.064Z,11.54
2019-04-27T16:11:43.043Z,10.81
2019-04-27T16:14:16.258Z,10.08
2019-04-27T16:16:49.101Z,9.63
2019-04-27T16:19:22.117Z,9.20
2019-04-27T16:21:54.991Z,8.87
2019-04-27T16:24:29.071Z,8.69
2019-04-27T16:27:02.136Z,8.66
2019-04-27T16:29:35.004Z,8.65
2019-04-27T16:32:11.315Z,8.54
2019-04-27T16:34:43.847Z,8.58
2019-04-27T16:37:28.543Z,8.58
2019-04-27T16:40:01.423Z,8.51
2019-04-27T16:42:34.361Z,8.47
2019-04-27T16:45:08.611Z,8.61
2019-04-27T16:47:41.699Z,8.61
2019-04-27T16:50:19.750Z,8.52
2019-04-27T16:52:56.520Z,8.45
2019-04-27T16:55:28.019Z,8.48
2019-04-27T16:57:59.973Z,8.51
2019-04-27T17:00:33.025Z,8.50
2019-04-27T17:03:06.786Z,8.43
2019-04-27T17:05:39.714Z,8.29
2019-04-27T17:08:22.388Z,8.04
2019-04-27T17:10:49.709Z,7.90
2019-04-27T17:13:22.887Z,7.17
2019-04-27T17:16:24.670Z,6.47
2019-04-27T17:19:12.439Z,6.09
2019-04-27T17:21:44.823Z,6.00
2019-04-27T17:24:37.411Z,5.91
2019-04-27T17:27:11.245Z,5.87
2019-04-27T17:29:43.010Z,5.83
2019-04-27T17:32:40.448Z,5.85
2019-04-27T17:35:15.068Z,5.89
2019-04-27T17:37:48.848Z,5.88
2019-04-27T17:40:21.841Z,5.83
2019-04-27T17:42:54.631Z,5.87
2019-04-27T17:45:30.480Z,5.93
2019-04-27T17:48:06.769Z,5.88
2019-04-27T17:50:38.583Z,5.87
2019-04-27T17:53:11.409Z,5.83
2019-04-27T17:55:44.096Z,5.81
2019-04-27T17:58:17.955Z,5.89
2019-04-27T18:00:50.662Z,5.84
2019-04-27T18:03:23.429Z,5.80
2019-04-27T18:05:58.125Z,5.81
2019-04-27T18:08:30.692Z,5.82
2019-04-27T18:11:03.525Z,5.84
2019-04-27T18:13:36.286Z,5.85
2019-04-27T18:16:09.322Z,5.87
2019-04-27T18:18:49.689Z,5.86
2019-04-27T18:21:28.265Z,5.78
2019-04-27T18:24:05.644Z,5.75
2019-04-27T18:26:49.284Z,5.78
2019-04-27T18:29:22.851Z,5.82
2019-04-27T18:31:54.756Z,5.73
2019-04-27T18:34:28.629Z,5.71
2019-04-27T18:37:04.169Z,5.81
2019-04-27T18:39:36.141Z,5.77
2019-04-27T18:42:09.157Z,5.81
2019-04-27T18:44:42.076Z,5.85
2019-04-27T18:47:14.870Z,5.87
2019-04-27T18:50:25.428Z,5.81
2019-04-27T18:53:02.364Z,5.74
2019-04-27T18:55:35.256Z,5.72
2019-04-27T18:58:09.095Z,5.66
2019-04-27T19:00:41.874Z,5.71
2019-04-27T19:03:14.795Z,5.69
2019-04-27T19:05:48.058Z,5.79
2019-04-27T19:08:20.916Z,5.70
2019-04-27T19:10:53.835Z,5.73
2019-04-27T19:13:26.579Z,5.70
2019-04-27T19:15:59.892Z,5.74
2019-04-27T19:18:32.621Z,5.62
2019-04-27T19:21:05.090Z,5.68
2019-04-27T19:23:38.261Z,5.58
2019-04-27T19:26:21.371Z,5.52
2019-04-27T19:29:12.909Z,5.51
2019-04-27T19:31:50.042Z,5.46
2019-04-27T19:34:22.807Z,5.46
2019-04-27T19:36:59.202Z,5.31
2019-04-27T19:39:32.096Z,5.36
2019-04-27T19:42:05.951Z,5.29
2019-04-27T19:44:38.986Z,5.15
2019-04-27T19:47:13.287Z,5.10
2019-04-27T19:49:45.996Z,5.20
2019-04-27T19:52:18.726Z,5.12
2019-04-27T19:54:51.598Z,5.02
2019-04-27T19:57:34.552Z,5.08
2019-04-27T20:00:03.018Z,5.01
2019-04-27T20:02:38.004Z,4.97
2019-04-27T20:05:11.953Z,4.98
2019-04-27T20:07:44.732Z,4.97
2019-04-27T20:10:17.617Z,4.92
2019-04-27T20:12:52.010Z,4.94
2019-04-27T20:15:24.816Z,4.79
2019-04-27T20:17:57.548Z,4.68
2019-04-27T20:20:30.381Z,4.60
2019-04-27T20:23:03.223Z,4.57
2019-04-27T20:25:36.136Z,4.62
2019-04-27T20:28:11.961Z,4.68
2019-04-27T20:30:44.554Z,4.62
2019-04-27T20:33:17.389Z,4.56
2019-04-27T20:35:51.902Z,4.55
2019-04-27T20:38:24.836Z,4.63
2019-04-27T20:40:57.694Z,4.64
2019-04-27T20:43:31.801Z,4.64
2019-04-27T20:46:04.728Z,4.61
2019-04-27T20:48:37.810Z,4.69
2019-04-27T20:51:12.989Z,4.72
2019-04-27T20:53:48.900Z,4.73
2019-04-27T20:56:21.638Z,4.71
2019-04-27T20:58:54.433Z,4.68
2019-04-27T21:01:27.194Z,4.74
2019-04-27T21:04:01.898Z,4.68
2019-04-27T21:06:38.039Z,4.66
2019-04-27T21:09:17.342Z,4.69
2019-04-27T21:11:50.130Z,4.73
2019-04-27T21:14:23.215Z,4.76
2019-04-27T21:16:56.967Z,4.71
2019-04-27T21:19:31.179Z,4.76
2019-04-27T21:22:04.113Z,4.98
2019-04-27T21:24:36.927Z,4.88
2019-04-27T21:27:12.849Z,4.83
2019-04-27T21:29:45.226Z,4.75
2019-04-27T21:32:17.976Z,4.68
2019-04-27T21:34:51.498Z,4.76
2019-04-27T21:37:27.210Z,4.73
2019-04-27T21:40:22.463Z,4.73
2019-04-27T21:42:55.332Z,4.71
2019-04-27T21:45:28.133Z,4.62
2019-04-27T21:48:01.981Z,4.57
2019-04-27T21:50:34.971Z,4.53
2019-04-27T21:53:13.303Z,4.47
2019-04-27T21:55:47.784Z,4.43
2019-04-27T21:58:28.570Z,4.42
2019-04-27T22:01:12.891Z,4.54
2019-04-27T22:03:44.591Z,4.35
2019-04-27T22:06:17.463Z,4.27
2019-04-27T22:08:51.168Z,4.27
2019-04-27T22:11:24.071Z,4.16
2019-04-27T22:13:57.029Z,4.13
2019-04-27T22:16:31.495Z,4.05
2019-04-27T22:19:04.608Z,4.02
2019-04-27T22:21:37.629Z,3.84
2019-04-27T22:24:17.779Z,3.85
2019-04-27T22:26:51.745Z,3.70
2019-04-27T22:29:24.777Z,3.69
2019-04-27T22:31:57.639Z,3.55
2019-04-27T22:34:36.609Z,3.47
2019-04-27T22:37:11.114Z,3.53
2019-04-27T22:39:52.857Z,3.35
2019-04-27T22:42:41.456Z,3.05
2019-04-27T22:45:18.379Z,2.83
2019-04-27T22:47:51.255Z,2.71
2019-04-27T22:50:24.096Z,2.61
2019-04-27T22:52:56.815Z,2.39
2019-04-27T22:55:31.016Z,2.36
2019-04-27T22:58:11.790Z,2.22
2019-04-27T23:00:52.206Z,2.25
2019-04-27T23:03:28.923Z,2.21
2019-04-27T23:06:01.782Z,2.14
2019-04-27T23:08:34.696Z,2.11
2019-04-27T23:11:07.893Z,2.00
2019-04-27T23:13:40.681Z,1.94
2019-04-27T23:16:15.112Z,1.90
2019-04-27T23:18:47.934Z,1.92
2019-04-27T23:21:20.932Z,1.88
2019-04-27T23:23:53.598Z,2.07
2019-04-27T23:26:26.417Z,2.19
2019-04-27T23:29:12.308Z,2.24
2019-04-27T23:31:42.966Z,2.32
2019-04-27T23:34:15.701Z,2.38
2019-04-27T23:36:48.424Z,2.36
2019-04-27T23:39:21.157Z,2.35
2019-04-27T23:41:53.931Z,2.32
2019-04-27T23:44:26.604Z,2.27
2019-04-27T23:46:59.384Z,2.37
2019-04-27T23:49:32.421Z,2.53
2019-04-27T23:52:23.996Z,2.57
2019-04-27T23:54:56.786Z,2.65
2019-04-27T23:57:29.460Z,2.78
